createdAt,value
2023-01-13T00:01:23.404Z,69.76
2023-01-13T00:04:26.697Z,69.70
2023-01-13T00:07:29.852Z,69.86
2023-01-13T00:10:34.658Z,69.77
2023-01-13T00:13:38.595Z,69.93
2023-01-13T00:16:41.776Z,69.93
2023-01-13T00:19:45.061Z,69.88
2023-01-13T00:22:48.269Z,69.91
2023-01-13T00:25:51.411Z,69.82
2023-01-13T00:28:59.248Z,69.93
2023-01-13T00:32:02.345Z,69.82
2023-01-13T00:35:06.173Z,70.02
2023-01-13T00:38:09.312Z,69.81
2023-01-13T00:41:14.465Z,69.93
2023-01-13T00:44:17.752Z,69.87
2023-01-13T00:47:20.871Z,69.90
2023-01-13T00:50:24.083Z,69.78
2023-01-13T00:53:28.751Z,69.88
2023-01-13T00:56:40.148Z,69.88
2023-01-13T00:59:44.085Z,69.87
2023-01-13T01:02:47.542Z,69.84
2023-01-13T01:05:50.768Z,69.82
2023-01-13T01:08:55.257Z,69.73
2023-01-13T01:11:59.959Z,69.70
2023-01-13T01:15:06.074Z,69.63
2023-01-13T01:18:09.393Z,69.56
2023-01-13T01:21:14.179Z,69.62
2023-01-13T01:24:17.443Z,69.37
2023-01-13T01:27:20.561Z,69.35
2023-01-13T01:30:23.734Z,69.54
2023-01-13T01:33:27.038Z,69.37
2023-01-13T01:36:30.575Z,69.35
2023-01-13T01:39:33.784Z,69.31
2023-01-13T01:42:55.558Z,69.22
2023-01-13T01:45:58.740Z,69.25
2023-01-13T01:49:14.046Z,69.02
2023-01-13T01:52:39.259Z,69.12
2023-01-13T01:55:42.671Z,68.99
2023-01-13T01:58:51.195Z,69.10
2023-01-13T02:01:54.587Z,69.00
2023-01-13T02:04:59.318Z,69.05
2023-01-13T02:08:03.733Z,68.79
2023-01-13T02:11:27.338Z,68.83
2023-01-13T02:14:31.839Z,68.80
2023-01-13T02:18:02.377Z,68.79
2023-01-13T02:21:17.428Z,68.79
2023-01-13T02:24:55.925Z,68.59
2023-01-13T02:28:08.118Z,68.76
2023-01-13T02:31:33.980Z,68.60
2023-01-13T02:34:42.577Z,68.58
2023-01-13T02:37:46.920Z,68.48
2023-01-13T02:41:25.982Z,68.55
2023-01-13T02:44:36.455Z,68.48
2023-01-13T02:47:41.987Z,68.41
2023-01-13T02:50:51.063Z,68.34
2023-01-13T02:54:01.158Z,68.40
2023-01-13T02:57:08.648Z,68.39
2023-01-13T03:00:13.508Z,68.44
2023-01-13T03:03:16.579Z,68.34
2023-01-13T03:06:46.207Z,68.28
2023-01-13T03:10:08.501Z,68.27
2023-01-13T03:13:36.793Z,68.32
2023-01-13T03:17:18.568Z,68.37
2023-01-13T03:20:32.528Z,68.17
2023-01-13T03:23:50.829Z,68.09
2023-01-13T03:26:59.602Z,68.21
2023-01-13T03:30:17.162Z,68.19
2023-01-13T03:33:33.364Z,68.06
2023-01-13T03:36:40.507Z,68.08
2023-01-13T03:39:50.419Z,68.07
2023-01-13T03:44:01.561Z,67.94
2023-01-13T03:47:07.591Z,67.95
2023-01-13T03:50:19.687Z,67.90
2023-01-13T03:53:53.009Z,68.08
2023-01-13T03:57:05.197Z,68.07
2023-01-13T04:00:12.656Z,68.06
2023-01-13T04:03:25.399Z,68.04
2023-01-13T04:07:00.570Z,68.01
2023-01-13T04:10:07.753Z,68.03
2023-01-13T04:13:14.491Z,67.89
2023-01-13T04:16:17.833Z,67.91
2023-01-13T04:19:21.647Z,67.93
2023-01-13T04:22:24.761Z,67.91
2023-01-13T04:25:27.833Z,67.95
2023-01-13T04:28:31.118Z,67.88
2023-01-13T04:31:34.249Z,67.76
2023-01-13T04:34:37.410Z,67.90
2023-01-13T04:37:40.506Z,67.62
2023-01-13T04:40:44.177Z,67.66
2023-01-13T04:43:47.263Z,67.63
2023-01-13T04:46:50.600Z,67.57
2023-01-13T04:49:53.731Z,67.66
2023-01-13T04:52:57.185Z,67.75
2023-01-13T04:56:00.364Z,67.61
2023-01-13T04:59:03.571Z,67.57
2023-01-13T05:02:09.088Z,67.65
2023-01-13T05:05:12.368Z,67.62
2023-01-13T05:08:15.598Z,67.64
2023-01-13T05:11:37.578Z,67.57
2023-01-13T05:14:58.899Z,67.56
2023-01-13T05:18:08.076Z,67.51
2023-01-13T05:21:31.319Z,67.57
2023-01-13T05:24:52.965Z,67.42
2023-01-13T05:27:58.210Z,67.47
2023-01-13T05:31:01.677Z,67.36
2023-01-13T05:34:04.820Z,67.25
2023-01-13T05:37:08.387Z,67.21
2023-01-13T05:40:32.572Z,67.17
2023-01-13T05:43:35.781Z,67.24
2023-01-13T05:46:38.893Z,67.28
2023-01-13T05:49:42.326Z,67.21
2023-01-13T05:52:45.508Z,67.11
2023-01-13T05:55:49.766Z,67.18
2023-01-13T05:58:52.872Z,67.05
2023-01-13T06:01:55.983Z,67.06
2023-01-13T06:04:59.141Z,67.19
2023-01-13T06:08:04.272Z,66.97
2023-01-13T06:11:07.837Z,67.03
2023-01-13T06:14:11.030Z,66.89
2023-01-13T06:17:16.304Z,66.95
2023-01-13T06:20:20.009Z,66.87
2023-01-13T06:23:24.052Z,66.93
2023-01-13T06:26:29.131Z,66.94
2023-01-13T06:29:32.313Z,66.83
2023-01-13T06:32:40.509Z,66.78
2023-01-13T06:35:49.620Z,66.88
2023-01-13T06:38:57.893Z,66.87
2023-01-13T06:42:20.161Z,66.65
2023-01-13T06:45:25.008Z,66.67
2023-01-13T06:48:33.210Z,66.61
2023-01-13T06:51:37.043Z,66.69
2023-01-13T06:54:40.194Z,66.57
2023-01-13T06:57:58.101Z,66.67
2023-01-13T07:01:01.532Z,66.66
2023-01-13T07:04:04.973Z,66.74
2023-01-13T07:07:08.388Z,66.44
2023-01-13T07:10:22.239Z,66.60
2023-01-13T07:13:43.832Z,66.62
2023-01-13T07:16:47.056Z,66.52
2023-01-13T07:19:50.687Z,66.51
2023-01-13T07:22:55.015Z,66.58
2023-01-13T07:25:59.710Z,66.52
2023-01-13T07:29:08.887Z,66.53
2023-01-13T07:32:17.262Z,66.46
2023-01-13T07:35:23.170Z,66.55
2023-01-13T07:38:27.211Z,66.39
2023-01-13T07:41:48.737Z,66.56
2023-01-13T07:44:51.967Z,66.29
2023-01-13T07:47:55.214Z,66.39
2023-01-13T07:51:06.136Z,66.41
2023-01-13T07:54:09.319Z,66.30
2023-01-13T07:57:12.416Z,66.31
2023-01-13T08:00:18.242Z,66.25
2023-01-13T08:03:23.117Z,66.28
2023-01-13T08:06:27.046Z,66.20
2023-01-13T08:09:37.075Z,66.23
2023-01-13T08:12:58.613Z,66.20
2023-01-13T08:16:14.597Z,66.09
2023-01-13T08:19:17.825Z,66.21
2023-01-13T08:22:21.149Z,66.13
2023-01-13T08:25:26.609Z,66.08
2023-01-13T08:28:30.365Z,66.29
2023-01-13T08:31:33.665Z,66.05
2023-01-13T08:34:43.247Z,66.15
2023-01-13T08:37:47.661Z,66.08
2023-01-13T08:40:51.068Z,66.00
2023-01-13T08:44:04.784Z,66.03
2023-01-13T08:47:08.217Z,65.94
2023-01-13T08:50:12.321Z,65.94
2023-01-13T08:53:15.722Z,66.20
2023-01-13T08:56:23.559Z,66.01
2023-01-13T08:59:28.515Z,65.95
2023-01-13T09:02:52.384Z,65.98
2023-01-13T09:06:20.134Z,66.01
2023-01-13T09:09:31.404Z,65.95
2023-01-13T09:13:07.276Z,65.86
2023-01-13T09:16:20.459Z,65.74
2023-01-13T09:19:23.848Z,65.90
2023-01-13T09:22:27.682Z,65.80
2023-01-13T09:25:36.787Z,65.85
2023-01-13T09:28:39.997Z,65.74
2023-01-13T09:31:44.323Z,65.55
2023-01-13T09:35:06.721Z,65.57
2023-01-13T09:38:10.065Z,65.52
2023-01-13T09:41:53.351Z,65.56
2023-01-13T09:45:19.860Z,65.32
2023-01-13T09:48:52.262Z,65.31
2023-01-13T09:52:27.100Z,65.29
2023-01-13T09:55:37.013Z,65.10
2023-01-13T09:58:41.605Z,64.97
2023-01-13T10:02:00.405Z,64.98
2023-01-13T10:05:11.964Z,64.86
2023-01-13T10:08:29.840Z,64.95
2023-01-13T10:11:59.415Z,64.77
2023-01-13T10:15:11.403Z,64.87
2023-01-13T10:18:44.969Z,64.86
2023-01-13T10:22:14.794Z,64.66
2023-01-13T10:25:42.273Z,64.36
2023-01-13T10:28:56.973Z,64.51
2023-01-13T10:32:03.680Z,64.45
2023-01-13T10:36:03.869Z,64.39
2023-01-13T10:39:18.408Z,64.33
2023-01-13T10:42:24.804Z,64.26
2023-01-13T10:45:29.096Z,64.18
2023-01-13T10:49:03.672Z,64.15
2023-01-13T10:52:26.974Z,64.09
2023-01-13T10:55:40.428Z,64.03
2023-01-13T10:58:44.706Z,64.07
2023-01-13T11:02:33.748Z,64.09
2023-01-13T11:05:37.231Z,64.10
2023-01-13T11:08:46.351Z,64.13
2023-01-13T11:11:56.007Z,64.11
2023-01-13T11:15:39.345Z,63.88
2023-01-13T11:19:40.487Z,63.96
2023-01-13T11:23:16.548Z,64.05
2023-01-13T11:27:29.431Z,63.99
2023-01-13T11:30:55.997Z,64.04
2023-01-13T11:34:13.185Z,63.94
2023-01-13T11:37:23.805Z,63.79
2023-01-13T11:40:37.569Z,64.01
2023-01-13T11:44:20.341Z,64.01
2023-01-13T11:47:28.820Z,63.89
2023-01-13T11:50:39.833Z,63.88
2023-01-13T11:54:22.572Z,63.82
2023-01-13T11:57:35.058Z,63.57
2023-01-13T12:00:56.579Z,63.78
2023-01-13T12:04:18.118Z,63.61
2023-01-13T12:07:27.544Z,63.42
2023-01-13T12:10:53.901Z,63.34
2023-01-13T12:14:29.696Z,63.44
2023-01-13T12:21:32.380Z,63.19
2023-01-13T12:24:52.146Z,63.24
2023-01-13T12:28:10.668Z,63.09
2023-01-13T12:31:19.880Z,63.10
2023-01-13T12:34:48.536Z,63.09
2023-01-13T12:38:05.754Z,63.01
2023-01-13T12:41:27.594Z,63.13
2023-01-13T12:44:32.148Z,63.01
2023-01-13T12:57:27.087Z,63.26
2023-01-13T13:00:41.067Z,63.19
2023-01-13T13:13:49.372Z,63.17
2023-01-13T13:17:01.650Z,63.23
2023-01-13T13:24:15.386Z,63.23
2023-01-13T13:27:38.563Z,63.13
2023-01-13T13:30:51.632Z,63.21
2023-01-13T13:34:06.818Z,63.22
2023-01-13T13:38:03.848Z,63.07
2023-01-13T13:42:12.184Z,63.33
2023-01-13T13:49:16.508Z,63.41
2023-01-13T13:52:41.766Z,63.50
2023-01-13T13:56:00.224Z,63.53
2023-01-13T13:59:04.492Z,63.56
2023-01-13T14:02:30.983Z,63.57
2023-01-13T14:06:22.138Z,63.73
2023-01-13T14:09:45.222Z,63.64
2023-01-13T14:12:54.618Z,63.70
2023-01-13T14:16:21.004Z,63.48
2023-01-13T14:19:53.183Z,63.52
2023-01-13T14:23:01.751Z,63.73
2023-01-13T14:26:12.997Z,63.65
2023-01-13T14:29:30.839Z,63.62
2023-01-13T14:32:38.223Z,63.58
2023-01-13T14:36:16.461Z,63.58
2023-01-13T14:39:45.342Z,63.80
2023-01-13T14:43:00.452Z,63.66
2023-01-13T14:46:09.702Z,63.70
2023-01-13T14:49:24.018Z,63.70
2023-01-13T14:52:51.462Z,63.85
2023-01-13T14:55:54.795Z,63.91
2023-01-13T14:59:45.639Z,64.13
2023-01-13T15:02:58.411Z,64.23
2023-01-13T15:06:28.559Z,64.17
2023-01-13T15:09:45.897Z,64.30
2023-01-13T15:13:07.246Z,64.31
2023-01-13T15:16:42.320Z,64.34
2023-01-13T15:19:45.843Z,64.44
2023-01-13T15:22:59.750Z,64.38
2023-01-13T15:26:39.777Z,64.52
2023-01-13T15:33:34.661Z,64.47
2023-01-13T15:37:30.475Z,64.44
2023-01-13T15:40:33.733Z,64.39
2023-01-13T15:45:20.916Z,64.36
2023-01-13T15:59:24.103Z,64.29
2023-01-13T16:02:27.739Z,64.29
2023-01-13T16:05:37.563Z,64.32
2023-01-13T16:08:40.907Z,64.29
2023-01-13T16:11:51.580Z,64.40
2023-01-13T16:14:55.115Z,64.46
2023-01-13T16:18:04.249Z,64.61
2023-01-13T16:24:32.328Z,64.56
2023-01-13T16:27:35.694Z,64.75
2023-01-13T16:30:57.551Z,64.83
2023-01-13T16:34:02.551Z,64.86
2023-01-13T16:37:40.739Z,64.93
2023-01-13T16:40:44.156Z,64.87
2023-01-13T16:44:23.958Z,64.93
2023-01-13T16:47:27.307Z,65.00
2023-01-13T16:50:56.471Z,64.94
2023-01-13T16:53:59.839Z,64.94
2023-01-13T16:57:03.713Z,65.10
2023-01-13T17:00:07.985Z,65.21
2023-01-13T17:03:12.222Z,65.25
2023-01-13T17:07:00.467Z,65.28
2023-01-13T17:10:36.170Z,65.27
2023-01-13T17:13:41.772Z,65.42
2023-01-13T17:16:49.608Z,65.54
2023-01-13T17:19:53.395Z,65.66
2023-01-13T17:22:58.697Z,65.80
2023-01-13T17:26:02.200Z,65.80
2023-01-13T17:33:58.138Z,65.82
2023-01-13T17:40:26.601Z,66.13
2023-01-13T17:43:37.290Z,66.11
2023-01-13T17:46:42.516Z,66.33
2023-01-13T17:50:19.731Z,66.25
2023-01-13T17:53:27.229Z,66.34
2023-01-13T17:56:33.764Z,66.33
2023-01-13T17:59:46.370Z,66.41
2023-01-13T18:02:56.556Z,66.47
2023-01-13T18:06:08.007Z,66.59
2023-01-13T18:09:11.733Z,66.73
2023-01-13T18:12:15.038Z,66.84
2023-01-13T18:15:18.127Z,66.95
2023-01-13T18:18:21.300Z,67.02
2023-01-13T18:21:45.319Z,67.06
2023-01-13T18:25:06.873Z,67.20
2023-01-13T18:28:10.017Z,67.34
2023-01-13T18:31:13.268Z,67.63
2023-01-13T18:34:16.382Z,67.63
2023-01-13T18:37:19.553Z,67.73
2023-01-13T18:40:22.782Z,67.78
2023-01-13T18:43:26.249Z,67.89
2023-01-13T18:46:29.453Z,67.97
2023-01-13T18:49:32.733Z,68.09
2023-01-13T18:52:36.441Z,68.15
2023-01-13T18:55:39.585Z,68.24
2023-01-13T18:58:51.739Z,68.21
2023-01-13T19:01:55.209Z,68.36
2023-01-13T19:04:59.080Z,68.47
2023-01-13T19:08:02.939Z,69.15
2023-01-13T19:11:07.383Z,68.78
2023-01-13T19:14:10.486Z,68.78
2023-01-13T19:17:15.300Z,68.67
2023-01-13T19:20:19.929Z,68.83
2023-01-13T19:23:23.087Z,68.69
2023-01-13T19:26:26.124Z,68.77
2023-01-13T19:29:33.174Z,68.78
2023-01-13T19:32:37.033Z,68.84
2023-01-13T19:35:40.525Z,68.86
2023-01-13T19:38:43.699Z,69.01
2023-01-13T19:42:05.600Z,68.99
2023-01-13T19:45:29.371Z,69.07
2023-01-13T19:48:32.872Z,69.16
2023-01-13T19:51:35.951Z,69.20
2023-01-13T19:54:39.113Z,69.26
2023-01-13T19:57:43.490Z,69.34
2023-01-13T20:00:48.432Z,69.26
2023-01-13T20:03:51.533Z,69.35
2023-01-13T20:06:55.454Z,69.43
2023-01-13T20:09:58.624Z,69.47
2023-01-13T20:13:01.920Z,69.58
2023-01-13T20:16:05.501Z,69.63
2023-01-13T20:19:08.738Z,69.58
2023-01-13T20:22:12.273Z,69.59
2023-01-13T20:25:17.517Z,69.63
2023-01-13T20:28:20.751Z,69.70
2023-01-13T20:31:24.014Z,69.77
2023-01-13T20:34:27.568Z,69.88
2023-01-13T20:37:31.043Z,69.85
2023-01-13T20:40:34.216Z,69.85
2023-01-13T20:43:37.347Z,69.79
2023-01-13T20:46:44.736Z,69.92
2023-01-13T20:49:48.023Z,69.94
2023-01-13T20:52:52.623Z,69.98
2023-01-13T20:55:55.921Z,70.00
2023-01-13T20:58:59.156Z,69.97
2023-01-13T21:02:02.966Z,70.09
2023-01-13T21:05:06.461Z,69.99
2023-01-13T21:08:09.518Z,69.99
2023-01-13T21:11:14.960Z,70.05
2023-01-13T21:14:42.057Z,70.02
2023-01-13T21:18:04.807Z,69.98
2023-01-13T21:21:13.951Z,70.01
2023-01-13T21:24:17.079Z,70.12
2023-01-13T21:27:20.348Z,70.11
2023-01-13T21:30:23.446Z,70.11
2023-01-13T21:33:26.788Z,70.16
2023-01-13T21:36:29.904Z,70.11
2023-01-13T21:39:35.619Z,70.07
2023-01-13T21:42:57.351Z,70.25
2023-01-13T21:46:19.177Z,70.10
2023-01-13T21:49:22.326Z,70.20
2023-01-13T21:52:26.166Z,70.20
2023-01-13T21:55:29.917Z,70.18
2023-01-13T21:58:33.174Z,70.20
2023-01-13T22:01:36.364Z,70.18
2023-01-13T22:05:00.858Z,70.16
2023-01-13T22:08:05.140Z,70.16
2023-01-13T22:11:08.385Z,70.15
2023-01-13T22:14:13.851Z,70.22
2023-01-13T22:17:17.931Z,70.35
2023-01-13T22:20:22.769Z,70.32
2023-01-13T22:23:26.143Z,70.23
2023-01-13T22:26:29.317Z,70.19
2023-01-13T22:29:32.377Z,70.21
2023-01-13T22:32:38.011Z,70.05
2023-01-13T22:35:41.111Z,70.12
2023-01-13T22:38:44.432Z,70.15
2023-01-13T22:41:47.498Z,70.18
2023-01-13T22:44:50.660Z,70.14
2023-01-13T22:47:53.795Z,70.24
2023-01-13T22:50:56.921Z,70.13
2023-01-13T22:54:00.051Z,70.11
2023-01-13T22:57:03.191Z,70.01
2023-01-13T23:00:06.814Z,69.97
2023-01-13T23:03:09.951Z,69.94
2023-01-13T23:06:13.499Z,70.00
2023-01-13T23:09:16.638Z,69.88
2023-01-13T23:12:19.735Z,69.91
2023-01-13T23:15:22.858Z,69.83
2023-01-13T23:18:26.429Z,69.86
2023-01-13T23:21:32.455Z,69.88
2023-01-13T23:24:35.638Z,69.91
2023-01-13T23:27:38.713Z,69.89
2023-01-13T23:30:41.810Z,69.85
2023-01-13T23:33:45.274Z,69.89
2023-01-13T23:36:48.388Z,69.84
2023-01-13T23:39:51.571Z,69.83
2023-01-13T23:42:54.659Z,69.91
2023-01-13T23:46:07.546Z,69.81
2023-01-13T23:49:10.741Z,69.68
2023-01-13T23:52:13.912Z,69.69
2023-01-13T23:55:16.976Z,69.77
2023-01-13T23:58:20.449Z,69.77
